map of AFN home
AFN - Airport
Location
City:  Jaffrey, New Hampshire, United States
Name:Jaffrey Airport-Silver Ranch
ICAO:KAFN
IATA:AFN
FAA LID:AFN

Details
Type:Airport (Airfield)
Use:Public/Civil
Latitude:4248'18"N (42.805134)
Longitude:7200'11"W (-72.003021)
Datum:WGS 1984
Elevation:1039 ft (317 m)
Variation:14.21W (WMM2015v2 magnetic declination)
0.08 annual change
Runways:1
Longest:2982 × 134 ft (909 × 41 m), paved

Time
Time Zone:UTC-5 (DST-4)
Local Time:

Weather
METAR:KAFN 041352Z AUTO 20007KT 7SM CLR 02/01 A3002 RMK AO2 SLP179 T00220006

Related Locations
Nearby:
Farthest:YAUG: 11733 mi / 18882 km
Augusta [Augusta Airport], WA, AU

Find:

   beyond  
but within

Other Information
Maps:
NOTAMs:
Links:
Sources:

  
  • flag of United States
  • flag of New Hampshire
  

Sectional Chart

Flight Planning
at skyvector.com

Satellite Image

Google Maps Satellite view

 

Copyright © 2004-2019 Karl L. Swartz. All rights reserved.
The Great Circle Mapper name and logo are trademarks of the Great Circle Mapper.
All other trademarks mentioned herein belong to their respective owners.
Please see credits for attibutions and further copyright information.

  Follow gcmap on Facebook Follow gcmap on Twitter GCmap on LinkedIn

hCard Microformat

Geo Microformat